createdAt,value
2019-01-08T00:00:11.769Z,20.93
2019-01-08T00:01:11.721Z,20.93
2019-01-08T00:02:11.722Z,20.93
2019-01-08T00:03:11.724Z,21.02
2019-01-08T00:04:11.728Z,20.93
2019-01-08T00:05:11.731Z,20.93
2019-01-08T00:06:11.732Z,20.93
2019-01-08T00:07:11.734Z,20.93
2019-01-08T00:08:11.737Z,20.83
2019-01-08T00:09:11.739Z,20.83
2019-01-08T00:10:11.741Z,20.93
2019-01-08T00:11:11.945Z,20.73
2019-01-08T00:12:11.747Z,20.93
2019-01-08T00:13:11.830Z,20.73
2019-01-08T00:14:11.751Z,20.73
2019-01-08T00:15:11.754Z,20.83
2019-01-08T00:16:11.756Z,20.83
2019-01-08T00:17:11.760Z,20.73
2019-01-08T00:18:11.762Z,20.83
2019-01-08T00:19:11.765Z,20.83
2019-01-08T00:20:11.767Z,20.73
2019-01-08T00:21:11.920Z,20.73
2019-01-08T00:22:11.771Z,20.64
2019-01-08T00:23:11.773Z,20.73
2019-01-08T00:24:11.777Z,20.83
2019-01-08T00:25:11.778Z,20.73
2019-01-08T00:26:11.780Z,20.73
2019-01-08T00:27:11.783Z,20.83
2019-01-08T00:28:11.787Z,20.54
2019-01-08T00:29:11.789Z,20.83
2019-01-08T00:30:11.990Z,20.73
2019-01-08T00:31:11.793Z,20.73
2019-01-08T00:32:11.797Z,20.83
2019-01-08T00:33:11.801Z,20.73
2019-01-08T00:34:12.000Z,20.44
2019-01-08T00:35:11.803Z,20.44
2019-01-08T00:36:11.805Z,20.44
2019-01-08T00:37:11.813Z,20.44
2019-01-08T00:38:11.821Z,20.44
2019-01-08T00:39:11.812Z,21.12
2019-01-08T00:40:11.815Z,20.44
2019-01-08T00:41:11.819Z,20.64
2019-01-08T00:42:12.020Z,20.44
2019-01-08T00:43:11.822Z,20.54
2019-01-08T00:44:11.826Z,20.73
2019-01-08T00:45:11.828Z,20.73
2019-01-08T00:46:11.829Z,20.64
2019-01-08T00:47:11.932Z,20.83
2019-01-08T00:48:11.836Z,20.64
2019-01-08T00:49:11.840Z,20.73
2019-01-08T00:50:11.845Z,20.64
2019-01-08T00:51:11.842Z,20.64
2019-01-08T00:52:11.845Z,20.64
2019-01-08T00:53:11.847Z,20.54
2019-01-08T00:54:11.849Z,20.64
2019-01-08T00:55:11.853Z,20.83
2019-01-08T00:56:11.855Z,20.83
2019-01-08T00:57:11.857Z,20.44
2019-01-08T00:58:11.859Z,20.83
2019-01-08T00:59:11.913Z,20.73
2019-01-08T01:00:11.866Z,20.73
2019-01-08T01:01:11.916Z,20.44
2019-01-08T01:02:11.869Z,20.83
2019-01-08T01:03:11.872Z,20.44
2019-01-08T01:04:11.875Z,20.64
2019-01-08T01:05:11.876Z,20.83
2019-01-08T01:06:11.879Z,20.64
2019-01-08T01:07:11.881Z,20.73
2019-01-08T01:08:11.887Z,20.73
2019-01-08T01:09:11.887Z,20.93
2019-01-08T01:10:11.888Z,20.83
2019-01-08T01:11:11.891Z,20.73
2019-01-08T01:12:11.894Z,20.64
2019-01-08T01:13:11.897Z,20.73
2019-01-08T01:14:11.898Z,20.83
2019-01-08T01:15:11.900Z,20.83
2019-01-08T01:16:12.103Z,20.83
2019-01-08T01:17:11.906Z,20.83
2019-01-08T01:18:11.966Z,20.54
2019-01-08T01:19:11.913Z,20.64
2019-01-08T01:20:11.913Z,20.93
2019-01-08T01:21:11.918Z,20.54
2019-01-08T01:22:11.918Z,20.64
2019-01-08T01:23:11.920Z,20.34
2019-01-08T01:24:11.975Z,20.83
2019-01-08T01:25:11.928Z,20.83
2019-01-08T01:26:11.928Z,20.64
2019-01-08T01:27:11.931Z,20.64
2019-01-08T01:28:11.936Z,20.64
2019-01-08T01:29:11.937Z,20.34
2019-01-08T01:30:11.947Z,20.44
2019-01-08T01:31:11.947Z,20.44
2019-01-08T01:32:11.947Z,20.34
2019-01-08T01:33:11.948Z,20.54
2019-01-08T01:34:11.948Z,20.44
2019-01-08T01:35:11.950Z,20.44
2019-01-08T01:36:11.952Z,20.44
2019-01-08T01:37:11.956Z,20.54
2019-01-08T01:38:11.957Z,20.44
2019-01-08T01:39:11.961Z,20.25
2019-01-08T01:40:11.962Z,20.34
2019-01-08T01:41:11.965Z,20.25
2019-01-08T01:42:11.978Z,20.15
2019-01-08T01:43:11.979Z,20.44
2019-01-08T01:44:12.173Z,20.25
2019-01-08T01:45:12.076Z,20.15
2019-01-08T01:46:11.977Z,20.15
2019-01-08T01:47:11.978Z,20.25
2019-01-08T01:48:11.982Z,20.15
2019-01-08T01:49:11.983Z,20.15
2019-01-08T01:50:11.986Z,20.15
2019-01-08T01:51:11.989Z,20.25
2019-01-08T01:52:11.991Z,20.06
2019-01-08T01:53:11.995Z,19.96
2019-01-08T01:54:11.995Z,19.96
2019-01-08T01:55:11.999Z,20.06
2019-01-08T01:56:12.105Z,20.06
2019-01-08T01:57:12.003Z,19.96
2019-01-08T01:58:12.005Z,19.96
2019-01-08T01:59:12.008Z,20.15
2019-01-08T02:00:12.010Z,20.06
2019-01-08T02:01:12.114Z,20.06
2019-01-08T02:02:12.466Z,20.15
2019-01-08T02:03:12.018Z,20.15
2019-01-08T02:04:12.024Z,20.06
2019-01-08T02:05:12.029Z,20.15
2019-01-08T02:06:12.133Z,20.06
2019-01-08T02:07:12.027Z,20.15
2019-01-08T02:08:12.034Z,20.06
2019-01-08T02:09:12.035Z,20.06
2019-01-08T02:10:12.032Z,20.15
2019-01-08T02:11:12.037Z,20.15
2019-01-08T02:12:12.290Z,20.06
2019-01-08T02:13:12.042Z,20.06
2019-01-08T02:14:12.044Z,20.15
2019-01-08T02:15:12.049Z,20.25
2019-01-08T02:16:12.049Z,20.06
2019-01-08T02:17:12.161Z,20.06
2019-01-08T02:18:12.313Z,20.15
2019-01-08T02:19:12.063Z,20.15
2019-01-08T02:20:12.063Z,20.06
2019-01-08T02:21:12.211Z,20.15
2019-01-08T02:22:12.063Z,20.15
2019-01-08T02:23:12.267Z,20.15
2019-01-08T02:24:12.069Z,20.15
2019-01-08T02:25:12.173Z,20.34
2019-01-08T02:26:12.223Z,20.25
2019-01-08T02:27:12.077Z,20.25
2019-01-08T02:28:12.079Z,20.25
2019-01-08T02:29:16.542Z,20.34
2019-01-08T02:30:12.084Z,20.25
2019-01-08T02:31:12.088Z,19.76
2019-01-08T02:32:12.094Z,19.76
2019-01-08T02:33:12.096Z,20.25
2019-01-08T02:34:12.092Z,19.76
2019-01-08T02:35:12.099Z,19.86
2019-01-08T02:36:12.098Z,19.76
2019-01-08T02:37:12.106Z,19.76
2019-01-08T02:38:12.102Z,19.86
2019-01-08T02:39:12.106Z,19.76
2019-01-08T02:40:12.107Z,19.86
2019-01-08T02:41:12.133Z,19.76
2019-01-08T02:42:12.116Z,19.76
2019-01-08T02:43:12.116Z,19.86
2019-01-08T02:44:12.223Z,19.96
2019-01-08T02:45:12.170Z,19.76
2019-01-08T02:46:12.196Z,19.76
2019-01-08T02:47:12.124Z,19.86
2019-01-08T02:48:12.179Z,19.86
2019-01-08T02:49:12.129Z,19.86
2019-01-08T02:50:12.139Z,19.86
2019-01-08T02:51:12.186Z,20.06
2019-01-08T02:52:12.136Z,19.86
2019-01-08T02:53:12.139Z,19.96
2019-01-08T02:54:12.171Z,19.96
2019-01-08T02:55:12.143Z,19.96
2019-01-08T02:56:12.146Z,19.96
2019-01-08T02:57:12.152Z,19.96
2019-01-08T02:58:12.151Z,19.86
2019-01-08T02:59:12.153Z,20.06
2019-01-08T03:00:12.257Z,19.96
2019-01-08T03:01:12.156Z,19.96
2019-01-08T03:02:12.211Z,19.96
2019-01-08T03:03:12.162Z,19.96
2019-01-08T03:04:12.166Z,20.06
2019-01-08T03:05:12.218Z,19.86
2019-01-08T03:06:12.320Z,19.86
2019-01-08T03:07:12.173Z,19.96
2019-01-08T03:08:12.175Z,19.96
2019-01-08T03:09:12.180Z,19.96
2019-01-08T03:10:12.179Z,19.86
2019-01-08T03:11:12.182Z,19.76
2019-01-08T03:12:12.187Z,19.76
2019-01-08T03:13:12.188Z,19.86
2019-01-08T03:14:12.239Z,19.86
2019-01-08T03:15:12.191Z,19.96
2019-01-08T03:16:12.194Z,19.86
2019-01-08T03:17:12.197Z,19.86
2019-01-08T03:18:12.199Z,19.86
2019-01-08T03:19:12.201Z,19.86
2019-01-08T03:20:12.204Z,19.96
2019-01-08T03:21:12.209Z,19.96
2019-01-08T03:22:12.210Z,19.76
2019-01-08T03:23:12.361Z,19.67
2019-01-08T03:24:12.263Z,19.76
2019-01-08T03:25:12.220Z,19.67
2019-01-08T03:26:12.221Z,19.67
2019-01-08T03:27:12.222Z,19.67
2019-01-08T03:28:12.225Z,19.67
2019-01-08T03:29:12.226Z,19.76
2019-01-08T03:30:12.383Z,19.67
2019-01-08T03:31:12.233Z,19.67
2019-01-08T03:32:12.235Z,19.67
2019-01-08T03:33:12.235Z,19.67
2019-01-08T03:34:12.237Z,19.67
2019-01-08T03:35:12.243Z,19.57
2019-01-08T03:36:12.243Z,19.67
2019-01-08T03:37:12.245Z,19.67
2019-01-08T03:38:12.248Z,19.76
2019-01-08T03:39:12.250Z,19.86
2019-01-08T03:40:12.256Z,19.67
2019-01-08T03:41:12.256Z,19.57
2019-01-08T03:42:12.307Z,19.86
2019-01-08T03:43:12.261Z,19.67
2019-01-08T03:44:12.262Z,19.67
2019-01-08T03:45:12.265Z,19.67
2019-01-08T03:46:12.266Z,19.67
2019-01-08T03:47:12.269Z,19.57
2019-01-08T03:48:12.271Z,19.67
2019-01-08T03:49:12.278Z,19.57
2019-01-08T03:50:12.276Z,19.67
2019-01-08T03:51:12.318Z,19.67
2019-01-08T03:52:12.281Z,19.76
2019-01-08T03:53:12.285Z,19.75
2019-01-08T03:54:12.291Z,19.75
2019-01-08T03:55:12.294Z,19.67
2019-01-08T03:56:12.295Z,19.76
2019-01-08T03:57:12.294Z,19.57
2019-01-08T03:58:12.295Z,19.66
2019-01-08T03:59:12.299Z,19.66
2019-01-08T04:00:12.301Z,19.67
2019-01-08T04:01:12.313Z,19.67
2019-01-08T04:02:12.308Z,19.67
2019-01-08T04:03:12.315Z,19.47
2019-01-08T04:04:12.310Z,19.67
2019-01-08T04:05:12.313Z,19.47
2019-01-08T04:06:12.326Z,19.47
2019-01-08T04:07:12.320Z,19.47
2019-01-08T04:08:12.322Z,19.38
2019-01-08T04:09:12.373Z,19.57
2019-01-08T04:10:12.324Z,19.47
2019-01-08T04:11:12.326Z,19.38
2019-01-08T04:12:12.329Z,19.56
2019-01-08T04:13:12.481Z,19.28
2019-01-08T04:14:12.334Z,19.37
2019-01-08T04:15:12.333Z,19.38
2019-01-08T04:16:12.394Z,19.47
2019-01-08T04:17:12.341Z,19.38
2019-01-08T04:18:12.444Z,19.38
2019-01-08T04:19:12.346Z,19.38
2019-01-08T04:20:12.348Z,19.47
2019-01-08T04:21:12.356Z,19.38
2019-01-08T04:22:12.352Z,19.47
2019-01-08T04:23:12.355Z,19.47
2019-01-08T04:24:12.359Z,19.47
2019-01-08T04:25:12.361Z,19.47
2019-01-08T04:26:12.375Z,19.38
2019-01-08T04:27:12.365Z,19.47
2019-01-08T04:28:12.371Z,19.46
2019-01-08T04:29:12.375Z,19.47
2019-01-08T04:30:12.477Z,19.28
2019-01-08T04:31:12.377Z,19.47
2019-01-08T04:32:12.379Z,19.47
2019-01-08T04:33:12.380Z,19.47
2019-01-08T04:34:12.381Z,19.47
2019-01-08T04:35:12.385Z,19.28
2019-01-08T04:36:12.386Z,19.17
2019-01-08T04:37:12.690Z,19.27
2019-01-08T04:38:12.392Z,19.28
2019-01-08T04:39:12.400Z,19.38
2019-01-08T04:40:12.396Z,19.27
2019-01-08T04:41:12.399Z,19.28
2019-01-08T04:42:12.403Z,19.28
2019-01-08T04:43:12.403Z,19.18
2019-01-08T04:44:12.406Z,19.28
2019-01-08T04:45:12.460Z,19.18
2019-01-08T04:46:12.432Z,19.18
2019-01-08T04:47:12.413Z,19.18
2019-01-08T04:48:12.416Z,19.18
2019-01-08T04:49:12.418Z,18.99
2019-01-08T04:50:12.429Z,18.88
2019-01-08T04:51:12.422Z,18.99
2019-01-08T04:52:12.425Z,18.89
2019-01-08T04:53:12.428Z,18.89
2019-01-08T04:54:12.429Z,18.89
2019-01-08T04:55:12.440Z,18.79
2019-01-08T04:56:12.434Z,18.98
2019-01-08T04:57:12.438Z,18.88
2019-01-08T04:58:12.439Z,19.09
2019-01-08T04:59:12.441Z,18.89
2019-01-08T05:00:12.451Z,18.99
2019-01-08T05:01:12.450Z,18.89
2019-01-08T05:02:12.904Z,18.99
2019-01-08T05:03:12.453Z,18.89
2019-01-08T05:04:12.458Z,18.89
2019-01-08T05:05:12.456Z,19.09
2019-01-08T05:06:12.716Z,18.99
2019-01-08T05:07:12.461Z,18.89
2019-01-08T05:08:12.464Z,18.99
2019-01-08T05:09:12.468Z,18.89
2019-01-08T05:10:12.467Z,19.07
2019-01-08T05:11:12.484Z,19.09
2019-01-08T05:12:12.473Z,18.99
2019-01-08T05:13:12.526Z,18.89
2019-01-08T05:14:12.477Z,19.09
2019-01-08T05:15:12.480Z,18.89
2019-01-08T05:16:12.481Z,19.09
2019-01-08T05:17:13.094Z,19.09
2019-01-08T05:18:12.487Z,19.09
2019-01-08T05:19:12.493Z,19.09
2019-01-08T05:20:12.492Z,18.99
2019-01-08T05:21:12.495Z,19.09
2019-01-08T05:22:12.496Z,19.07
2019-01-08T05:23:12.499Z,19.09
2019-01-08T05:24:12.502Z,19.09
2019-01-08T05:25:12.504Z,18.89
2019-01-08T05:26:12.506Z,18.70
2019-01-08T05:27:12.509Z,18.79
2019-01-08T05:28:12.511Z,18.31
2019-01-08T05:29:12.514Z,18.31
2019-01-08T05:30:12.565Z,18.12
2019-01-08T05:31:12.568Z,18.02
2019-01-08T05:32:12.521Z,18.21
2019-01-08T05:33:12.524Z,18.12
2019-01-08T05:34:12.525Z,17.92
2019-01-08T05:35:12.527Z,17.92
2019-01-08T05:36:12.530Z,17.73
2019-01-08T05:37:12.533Z,17.73
2019-01-08T05:38:12.534Z,17.63
2019-01-08T05:39:12.637Z,17.92
2019-01-08T05:40:12.539Z,18.02
2019-01-08T05:41:12.543Z,18.11
2019-01-08T05:42:12.544Z,17.92
2019-01-08T05:43:12.550Z,17.83
2019-01-08T05:44:12.549Z,18.02
2019-01-08T05:45:12.653Z,18.02
2019-01-08T05:46:12.553Z,18.02
2019-01-08T05:47:13.107Z,18.12
2019-01-08T05:48:12.562Z,18.02
2019-01-08T05:49:12.562Z,18.12
2019-01-08T05:50:12.563Z,18.31
2019-01-08T05:51:12.567Z,18.02
2019-01-08T05:52:12.569Z,18.12
2019-01-08T05:53:12.572Z,18.31
2019-01-08T05:54:12.573Z,18.21
2019-01-08T05:55:12.576Z,18.41
2019-01-08T05:56:12.579Z,18.60
2019-01-08T05:57:12.582Z,18.70
2019-01-08T05:58:12.721Z,18.99
2019-01-08T05:59:12.586Z,18.89
2019-01-08T06:00:16.537Z,18.89
2019-01-08T06:01:12.594Z,19.09
2019-01-08T06:02:12.592Z,19.09
2019-01-08T06:03:12.602Z,19.18
2019-01-08T06:04:12.598Z,18.99
2019-01-08T06:05:12.600Z,19.18
2019-01-08T06:06:12.602Z,18.89
2019-01-08T06:07:12.605Z,18.99
2019-01-08T06:08:12.607Z,19.57
2019-01-08T06:09:12.610Z,19.47
2019-01-08T06:10:12.613Z,19.47
2019-01-08T06:11:12.618Z,19.76
2019-01-08T06:12:12.618Z,19.86
2019-01-08T06:13:12.620Z,20.06
2019-01-08T06:14:12.622Z,19.86
2019-01-08T06:15:12.674Z,19.76
2019-01-08T06:16:12.625Z,20.25
2019-01-08T06:17:12.630Z,20.06
2019-01-08T06:18:12.632Z,20.25
2019-01-08T06:19:12.635Z,20.73
2019-01-08T06:20:12.637Z,20.73
2019-01-08T06:21:12.640Z,20.73
2019-01-08T06:22:12.691Z,20.93
2019-01-08T06:23:12.654Z,20.93
2019-01-08T06:24:12.754Z,21.22
2019-01-08T06:25:12.653Z,21.41
2019-01-08T06:26:12.664Z,20.93
2019-01-08T06:27:12.707Z,21.22
2019-01-08T06:28:12.758Z,21.80
2019-01-08T06:29:12.659Z,21.80
2019-01-08T06:30:12.711Z,21.89
2019-01-08T06:31:12.664Z,22.09
2019-01-08T06:32:12.767Z,21.99
2019-01-08T06:33:12.720Z,22.19
2019-01-08T06:34:12.671Z,22.19
2019-01-08T06:35:12.676Z,22.28
2019-01-08T06:36:12.700Z,22.38
2019-01-08T06:37:12.679Z,22.28
2019-01-08T06:38:12.684Z,22.28
2019-01-08T06:39:12.684Z,22.48
2019-01-08T06:40:12.687Z,22.39
2019-01-08T06:41:12.689Z,22.67
2019-01-08T06:42:12.691Z,22.57
2019-01-08T06:43:12.694Z,22.57
2019-01-08T06:44:12.697Z,22.67
2019-01-08T06:45:12.850Z,22.86
2019-01-08T06:46:12.702Z,22.77
2019-01-08T06:47:12.709Z,22.86
2019-01-08T06:48:12.717Z,22.77
2019-01-08T06:49:12.710Z,22.77
2019-01-08T06:50:12.712Z,22.86
2019-01-08T06:51:12.714Z,23.16
2019-01-08T06:52:12.817Z,22.96
2019-01-08T06:53:12.722Z,23.06
2019-01-08T06:54:12.722Z,23.16
2019-01-08T06:55:12.725Z,23.44
2019-01-08T06:56:14.615Z,23.16
2019-01-08T06:57:12.787Z,23.16
2019-01-08T06:58:12.733Z,23.35
2019-01-08T06:59:12.740Z,23.16
2019-01-08T07:00:12.742Z,23.16
2019-01-08T07:17:38.471Z,20.80
2019-01-08T07:18:38.416Z,22.16
2019-01-08T07:19:38.313Z,22.64
2019-01-08T07:20:38.312Z,22.63
2019-01-08T07:21:38.315Z,22.72
2019-01-08T07:22:38.410Z,22.72
2019-01-08T07:23:38.358Z,22.72
2019-01-08T07:24:38.307Z,22.44
2019-01-08T07:25:42.223Z,22.14
2019-01-08T07:26:38.508Z,22.06
2019-01-08T07:27:38.307Z,21.85
2019-01-08T07:28:38.308Z,21.66
2019-01-08T07:29:38.307Z,21.77
2019-01-08T07:30:41.564Z,21.57
2019-01-08T07:31:38.313Z,21.86
2019-01-08T07:32:38.311Z,21.86
2019-01-08T07:33:38.313Z,21.86
2019-01-08T07:34:38.412Z,21.77
2019-01-08T07:35:38.416Z,21.77
2019-01-08T07:36:38.318Z,21.88
2019-01-08T07:37:38.417Z,21.88
2019-01-08T07:38:38.319Z,21.88
2019-01-08T07:39:38.321Z,21.88
2019-01-08T07:40:38.324Z,21.58
2019-01-08T07:41:38.324Z,21.48
2019-01-08T07:42:38.328Z,21.30
2019-01-08T07:43:38.328Z,21.30
2019-01-08T07:44:38.331Z,21.30
2019-01-08T07:45:38.332Z,21.48
2019-01-08T07:46:40.268Z,21.48
2019-01-08T07:47:38.688Z,21.39
2019-01-08T07:48:38.539Z,21.69
2019-01-08T07:49:38.443Z,21.69
2019-01-08T07:50:38.644Z,21.69
2019-01-08T07:51:38.367Z,21.69
2019-01-08T07:52:38.498Z,22.08
2019-01-08T07:53:38.349Z,22.56
2019-01-08T07:54:38.351Z,22.85
2019-01-08T07:55:38.354Z,23.53
2019-01-08T07:56:38.407Z,23.25
2019-01-08T07:57:38.358Z,23.64
2019-01-08T07:58:38.363Z,23.54
2019-01-08T07:59:38.363Z,23.44
2019-01-08T08:00:38.516Z,23.25
2019-01-08T08:01:38.467Z,23.25
2019-01-08T08:02:38.622Z,23.16
2019-01-08T08:03:38.374Z,23.25
2019-01-08T08:04:38.375Z,23.16
2019-01-08T08:05:38.379Z,23.35
2019-01-08T08:06:38.480Z,23.44
2019-01-08T08:07:38.392Z,23.35
2019-01-08T08:08:38.435Z,23.16
2019-01-08T08:09:38.387Z,23.16
2019-01-08T08:10:38.689Z,23.06
2019-01-08T08:11:38.492Z,23.16
2019-01-08T08:12:38.444Z,23.07
2019-01-08T08:13:38.397Z,23.16
2019-01-08T08:14:38.400Z,23.16
2019-01-08T08:15:38.403Z,23.16
2019-01-08T08:16:38.457Z,23.16
2019-01-08T08:17:38.460Z,23.36
2019-01-08T08:18:38.413Z,23.55
2019-01-08T08:19:38.463Z,23.94
2019-01-08T08:20:38.416Z,23.75
2019-01-08T08:21:38.418Z,23.94
2019-01-08T08:22:38.423Z,23.85
2019-01-08T08:23:38.474Z,23.85
2019-01-08T08:24:38.476Z,24.04
2019-01-08T08:25:38.428Z,23.94
2019-01-08T08:26:38.431Z,24.13
2019-01-08T08:27:38.685Z,23.94
2019-01-08T08:28:38.439Z,23.95
2019-01-08T08:29:38.442Z,24.15
2019-01-08T08:30:38.442Z,24.24
2019-01-08T08:31:38.564Z,24.34
2019-01-08T08:32:38.451Z,24.43
2019-01-08T08:33:38.503Z,24.15
2019-01-08T08:34:38.454Z,24.44
2019-01-08T08:35:38.508Z,24.34
2019-01-08T08:36:38.510Z,24.34
2019-01-08T08:37:38.465Z,24.63
2019-01-08T08:38:38.466Z,24.24
2019-01-08T08:39:38.519Z,24.63
2019-01-08T08:40:38.722Z,24.24
2019-01-08T08:41:38.525Z,24.63
2019-01-08T08:42:38.478Z,24.05
2019-01-08T08:43:38.483Z,24.15
2019-01-08T08:44:38.482Z,24.24
2019-01-08T08:45:38.686Z,23.95
2019-01-08T08:46:38.492Z,23.66
2019-01-08T08:47:38.493Z,23.96
2019-01-08T08:48:38.547Z,23.58
2019-01-08T08:49:38.496Z,23.68
2019-01-08T08:50:38.653Z,23.66
2019-01-08T08:51:38.605Z,23.47
2019-01-08T08:52:38.558Z,23.58
2019-01-08T08:53:38.610Z,23.58
2019-01-08T08:54:38.563Z,23.48
2019-01-08T08:55:40.091Z,23.38
2019-01-08T08:56:38.522Z,23.68
2019-01-08T08:57:38.523Z,23.48
2019-01-08T08:58:38.526Z,23.28
2019-01-08T08:59:38.581Z,23.28
2019-01-08T09:00:38.733Z,23.28
2019-01-08T09:01:38.940Z,23.38
2019-01-08T09:02:39.641Z,23.19
2019-01-08T09:03:38.991Z,22.90
2019-01-08T09:04:38.748Z,22.99
2019-01-08T09:05:38.597Z,22.71
2019-01-08T09:06:38.706Z,22.71
2019-01-08T09:07:39.055Z,22.51
2019-01-08T09:08:39.210Z,22.41
2019-01-08T09:09:38.963Z,22.22
2019-01-08T09:10:38.718Z,22.22
2019-01-08T09:11:38.917Z,22.22
2019-01-08T09:12:38.620Z,22.22
2019-01-08T09:13:38.723Z,22.31
2019-01-08T09:14:38.577Z,22.31
2019-01-08T09:15:38.579Z,22.31
2019-01-08T09:16:38.585Z,22.22
2019-01-08T09:17:38.588Z,22.02
2019-01-08T09:18:38.591Z,22.02
2019-01-08T09:19:38.599Z,22.02
2019-01-08T09:20:38.596Z,22.02
2019-01-08T09:21:39.199Z,22.02
2019-01-08T09:22:39.705Z,21.93
2019-01-08T09:23:38.655Z,21.93
2019-01-08T09:24:38.609Z,21.73
2019-01-08T09:25:38.611Z,21.73
2019-01-08T09:26:38.667Z,21.73
2019-01-08T09:27:38.623Z,21.64
2019-01-08T09:28:38.624Z,21.44
2019-01-08T09:29:38.677Z,21.34
2019-01-08T10:06:03.247Z,22.43
2019-01-08T10:07:03.358Z,22.72
2019-01-08T10:08:03.147Z,22.53
2019-01-08T10:09:03.191Z,22.63
2019-01-08T10:10:03.292Z,22.63
2019-01-08T10:11:03.140Z,22.33
2019-01-08T10:12:03.191Z,22.24
2019-01-08T10:13:03.190Z,22.24
2019-01-08T10:14:03.142Z,22.25
2019-01-08T10:15:03.396Z,22.16
2019-01-08T10:16:03.139Z,22.06
2019-01-08T10:17:03.298Z,21.96
2019-01-08T10:18:03.147Z,21.86
2019-01-08T10:19:03.145Z,21.86
2019-01-08T10:20:03.152Z,21.78
2019-01-08T10:21:03.147Z,21.78
2019-01-08T10:22:03.149Z,21.68
2019-01-08T10:23:10.015Z,21.58
2019-01-08T10:24:03.153Z,21.59
2019-01-08T10:25:03.154Z,21.59
2019-01-08T10:26:03.164Z,21.69
2019-01-08T10:27:03.158Z,21.79
2019-01-08T10:28:03.158Z,21.59
2019-01-08T10:29:03.162Z,21.88
2019-01-08T10:30:03.166Z,21.70
2019-01-08T10:31:03.166Z,21.70
2019-01-08T10:32:03.370Z,21.80
2019-01-08T10:33:03.170Z,21.99
2019-01-08T10:34:03.174Z,21.80
2019-01-08T10:35:03.184Z,21.89
2019-01-08T10:36:03.177Z,21.89
2019-01-08T10:37:03.180Z,21.89
2019-01-08T10:38:03.183Z,22.00
2019-01-08T10:39:03.339Z,21.91
2019-01-08T10:40:03.190Z,22.00
2019-01-08T10:41:03.188Z,22.10
2019-01-08T10:42:03.292Z,22.20
2019-01-08T10:43:03.196Z,22.39
2019-01-08T10:44:03.269Z,22.78
2019-01-08T10:45:03.207Z,22.68
2019-01-08T10:46:03.203Z,22.30
2019-01-08T10:47:03.205Z,22.58
2019-01-08T10:48:03.362Z,22.39
2019-01-08T10:49:03.211Z,22.30
2019-01-08T10:50:03.217Z,22.40
2019-01-08T10:51:03.267Z,22.40
2019-01-08T10:52:03.226Z,22.69
2019-01-08T10:53:03.228Z,22.60
2019-01-08T10:54:03.231Z,22.60
2019-01-08T10:55:03.317Z,22.69
2019-01-08T10:56:03.241Z,22.89
2019-01-08T10:57:03.294Z,22.79
2019-01-08T10:58:03.238Z,22.99
2019-01-08T10:59:07.503Z,22.99
2019-01-08T11:00:03.242Z,22.99
2019-01-08T11:01:03.248Z,23.08
2019-01-08T11:02:03.248Z,22.89
2019-01-08T11:03:03.251Z,22.99
2019-01-08T11:04:03.354Z,22.99
2019-01-08T11:05:03.257Z,22.80
2019-01-08T11:06:03.261Z,22.80
2019-01-08T11:07:03.266Z,22.61
2019-01-08T11:08:03.269Z,22.61
2019-01-08T11:09:03.270Z,22.71
2019-01-08T11:10:03.273Z,22.71
2019-01-08T11:11:03.284Z,22.61
2019-01-08T11:12:03.275Z,22.61
2019-01-08T11:13:03.281Z,22.51
2019-01-08T11:14:03.286Z,22.41
2019-01-08T11:15:03.391Z,22.41
2019-01-08T11:16:03.298Z,22.51
2019-01-08T11:17:03.294Z,22.31
2019-01-08T11:18:03.401Z,22.51
2019-01-08T11:19:03.306Z,22.41
2019-01-08T11:20:03.305Z,22.41
2019-01-08T11:21:03.357Z,22.71
2019-01-08T11:22:03.418Z,22.80
2019-01-08T11:23:03.315Z,22.71
2019-01-08T11:24:03.320Z,22.72
2019-01-08T11:25:03.321Z,22.81
2019-01-08T11:26:03.324Z,22.62
2019-01-08T11:27:03.479Z,22.81
2019-01-08T11:28:03.330Z,22.62
2019-01-08T11:29:03.334Z,22.62
2019-01-08T11:30:03.337Z,22.62
2019-01-08T11:31:03.341Z,22.62
2019-01-08T11:32:03.346Z,22.62
2019-01-08T11:33:03.348Z,22.72
2019-01-08T11:34:03.355Z,22.52
2019-01-08T11:35:03.360Z,22.42
2019-01-08T11:36:03.408Z,22.42
2019-01-08T11:37:03.362Z,22.62
2019-01-08T11:38:03.414Z,22.81
2019-01-08T11:39:03.368Z,22.81
2019-01-08T11:40:03.371Z,22.81
2019-01-08T11:41:03.372Z,22.81
2019-01-08T11:42:03.381Z,23.00
2019-01-08T11:43:03.381Z,22.91
2019-01-08T11:44:03.383Z,22.81
2019-01-08T11:45:03.391Z,23.00
2019-01-08T11:46:03.391Z,23.20
2019-01-08T11:47:03.495Z,23.20
2019-01-08T11:48:04.190Z,23.20
2019-01-08T11:49:03.402Z,23.39
2019-01-08T11:50:03.604Z,23.30
2019-01-08T11:51:03.458Z,23.30
2019-01-08T11:52:03.412Z,23.59
2019-01-08T11:53:03.415Z,23.30
2019-01-08T11:54:03.418Z,23.10
2019-01-08T11:55:03.624Z,23.41
2019-01-08T11:56:03.422Z,23.49
2019-01-08T11:57:03.447Z,23.59
2019-01-08T11:58:03.445Z,23.41
2019-01-08T11:59:03.451Z,23.79
2019-01-08T12:00:03.449Z,23.70
2019-01-08T12:12:28.242Z,22.88
2019-01-08T12:13:28.239Z,24.43
2019-01-08T12:14:28.331Z,24.82
2019-01-08T12:15:28.231Z,25.01
2019-01-08T12:16:28.330Z,25.01
2019-01-08T12:17:28.280Z,24.82
2019-01-08T12:18:28.232Z,24.72
2019-01-08T12:19:28.388Z,24.62
2019-01-08T12:20:28.234Z,24.43
2019-01-08T12:21:28.235Z,24.41
2019-01-08T12:22:28.386Z,23.93
2019-01-08T12:23:28.242Z,23.74
2019-01-08T12:24:28.243Z,23.54
2019-01-08T12:25:29.580Z,23.85
2019-01-08T12:26:28.302Z,23.65
2019-01-08T12:27:28.347Z,23.46
2019-01-08T12:28:28.348Z,23.46
2019-01-08T12:29:28.251Z,23.16
2019-01-08T12:30:28.404Z,22.78
2019-01-08T12:31:28.356Z,22.58
2019-01-08T12:32:28.257Z,22.49
2019-01-08T12:33:28.260Z,22.20
2019-01-08T12:34:28.263Z,22.00
2019-01-08T12:35:28.267Z,21.91
2019-01-08T12:36:28.265Z,21.91
2019-01-08T12:37:28.272Z,21.51
2019-01-08T12:38:28.274Z,21.33
2019-01-08T12:39:28.277Z,21.33
2019-01-08T12:40:28.379Z,21.23
2019-01-08T12:41:28.382Z,21.13
2019-01-08T12:42:28.346Z,21.13
2019-01-08T12:43:28.287Z,20.94
2019-01-08T12:44:28.444Z,20.84
2019-01-08T12:45:28.344Z,20.74
2019-01-08T12:46:28.297Z,20.84
2019-01-08T12:47:28.655Z,20.36
2019-01-08T12:48:28.355Z,20.84
2019-01-08T12:49:28.307Z,20.94
2019-01-08T12:50:28.458Z,20.45
2019-01-08T12:51:28.444Z,20.36
2019-01-08T12:52:29.064Z,20.16
2019-01-08T12:53:28.767Z,20.06
2019-01-08T12:54:28.319Z,20.06
2019-01-08T12:55:28.323Z,20.16
2019-01-08T12:56:28.324Z,20.36
2019-01-08T12:57:28.786Z,20.26
2019-01-08T12:58:28.681Z,19.96
2019-01-08T12:59:28.386Z,19.96
2019-01-08T13:00:28.387Z,19.96
2019-01-08T13:01:28.740Z,19.96
2019-01-08T13:02:28.698Z,19.96
2019-01-08T13:03:28.346Z,19.87
2019-01-08T13:04:28.497Z,19.96
2019-01-08T13:05:28.351Z,19.87
2019-01-08T13:06:28.353Z,19.96
2019-01-08T13:07:28.613Z,19.96
2019-01-08T13:08:28.516Z,19.87
2019-01-08T13:09:28.363Z,19.68
2019-01-08T13:10:28.415Z,19.68
2019-01-08T13:11:28.371Z,19.78
2019-01-08T13:12:28.423Z,19.96
2019-01-08T13:13:28.376Z,19.58
2019-01-08T13:14:28.377Z,19.68
2019-01-08T13:15:28.380Z,19.68
2019-01-08T13:16:28.431Z,19.78
2019-01-08T13:17:28.987Z,19.78
2019-01-08T13:18:28.439Z,19.78
2019-01-08T13:19:28.393Z,19.68
2019-01-08T13:20:28.541Z,19.68
2019-01-08T13:21:28.397Z,19.68
2019-01-08T13:22:28.552Z,19.68
2019-01-08T13:23:28.408Z,19.68
2019-01-08T13:24:28.606Z,19.58
2019-01-08T13:25:28.411Z,19.58
2019-01-08T13:26:28.511Z,19.68
2019-01-08T13:27:28.428Z,19.68
2019-01-08T13:28:28.417Z,19.58
2019-01-08T13:29:28.420Z,19.68
2019-01-08T13:30:28.423Z,19.68
2019-01-08T13:31:28.527Z,19.68
2019-01-08T13:32:28.428Z,19.58
2019-01-08T13:33:28.482Z,19.68
2019-01-08T13:34:28.591Z,19.68
2019-01-08T13:35:28.793Z,19.58
2019-01-08T13:36:28.440Z,19.68
2019-01-08T13:37:28.545Z,19.68
2019-01-08T13:38:28.452Z,19.68
2019-01-08T13:39:28.501Z,19.58
2019-01-08T13:40:28.452Z,19.78
2019-01-08T13:41:28.455Z,19.48
2019-01-08T13:42:28.573Z,19.68
2019-01-08T13:43:28.460Z,19.58
2019-01-08T13:44:28.462Z,19.68
2019-01-08T13:45:28.467Z,19.58
2019-01-08T13:46:28.619Z,19.78
2019-01-08T13:47:28.622Z,19.68
2019-01-08T13:48:28.579Z,19.68
2019-01-08T13:49:28.478Z,19.68
2019-01-08T13:50:28.631Z,19.48
2019-01-08T13:51:28.483Z,19.48
2019-01-08T13:52:28.485Z,19.38
2019-01-08T13:53:28.489Z,19.48
2019-01-08T13:54:28.491Z,19.58
2019-01-08T13:55:28.496Z,19.48